MSC Vidhi — D5GE2 — position and weather

sailwx.info

Track history (hours):
 
Tides and Currents Weather Stations Pressure Air Temp Water Temp Dewpoint Dewpoint Depression Visibility Wind Speed Wind Dir Waves Ship Positions

MSC Vidhi

Last reported at 2018-Feb-20 11:59 UTC. Time now 2018-Feb-20 12:13 UTC.
Position N 51°58' E 004°04'.

Length 277 m; draft 8.9 m.

Type: Ship (hazmat cat A). MMSI: 636016433.

Date/timePositionNaut miles runAvg speedWind from/ knotsBaromVisibWave heightAir tempDewpointWater temp
2018-Feb-20 11:59N 51°58' E 004°04'0 0.0
2018-Feb-20 11:29N 51°58' E 004°04'0 0.0
2018-Feb-20 10:59N 51°58' E 004°04'0 0.0
2018-Feb-20 10:29N 51°58' E 004°04'0 0.0
2018-Feb-20 09:59N 51°58' E 004°04'0 0.0
2018-Feb-20 09:29N 51°58' E 004°04'0 0.0
2018-Feb-20 08:59N 51°58' E 004°04'0 0.0
2018-Feb-20 08:29N 51°58' E 004°04'0 0.0
2018-Feb-20 07:59N 51°58' E 004°04'0 0.0
2018-Feb-20 07:29N 51°58' E 004°04'0 0.0
2018-Feb-20 06:59N 51°58' E 004°04'0 0.0
2018-Feb-20 06:29N 51°58' E 004°04'0 0.0
2018-Feb-20 05:59N 51°58' E 004°04'0 0.0
2018-Feb-20 05:29N 51°58' E 004°04'0 0.0
2018-Feb-20 04:59N 51°58' E 004°04'0 0.0
2018-Feb-20 04:29N 51°58' E 004°04'0 0.0
2018-Feb-20 04:01N 51°58' E 004°04'0 0.3
2018-Feb-20 03:31N 51°58' E 004°04'2 3.8
2018-Feb-20 03:01N 51°59' E 004°03'611.6
2018-Feb-20 02:31N 52°01' E 003°54'3 5.1
2018-Feb-20 02:01N 52°01' E 003°49'3 6.4
2018-Feb-20 01:31N 51°59' E 003°45'3 6.9
2018-Feb-20 01:00N 51°58' E 003°40'2 4.1
2018-Feb-20 00:31N 51°57' E 003°37'3 6.3
2018-Feb-20 00:00N 51°56' E 003°32'3 6.7
2018-Feb-19 23:30N 51°55' E 003°26'4 8.3
2018-Feb-19 23:00N 51°53' E 003°21'814.5
2018-Feb-19 22:29N 51°46' E 003°16'613.7
2018-Feb-19 22:00N 51°40' E 003°12'816.6
2018-Feb-19 21:30N 51°32' E 003°07'816.7
2018-Feb-19 21:01N 51°25' E 002°59'1019.1
2018-Feb-19 20:30N 51°25' E 003°15'1020.2
2018-Feb-19 20:00N 51°25' E 003°31'713.0
2018-Feb-19 19:30N 51°26' E 003°41'816.8
2018-Feb-19 19:01N 51°21' E 003°51'815.2
2018-Feb-19 18:31N 51°26' E 003°60'613.0
2018-Feb-19 18:01N 51°22' E 004°08'611.0
2018-Feb-19 17:30N 51°20' E 004°16'4 7.1
2018-Feb-19 17:00N 51°17' E 004°15'0 0.0
2018-Feb-19 16:29N 51°17' E 004°15'0 0.0
2018-Feb-19 15:59N 51°17' E 004°15'0 0.0
2018-Feb-19 15:29N 51°17' E 004°15'0 0.0
2018-Feb-19 14:59N 51°17' E 004°15'0 0.0
2018-Feb-19 14:29N 51°17' E 004°15'0 0.0
2018-Feb-19 13:53N 51°17' E 004°15'0 0.0
2018-Feb-19 13:26N 51°17' E 004°15'0 0.0
2018-Feb-19 12:59N 51°17' E 004°15'0 0.0
2018-Feb-19 12:23N 51°17' E 004°15'0 0.0
2018-Feb-19 11:56N 51°17' E 004°15'0 0.0
2018-Feb-19 11:29N 51°17' E 004°15'0 0.0
2018-Feb-19 10:59N 51°17' E 004°15'0 0.0
2018-Feb-19 10:26N 51°17' E 004°15'0 0.0
2018-Feb-19 09:59N 51°17' E 004°15'0 0.0
2018-Feb-19 09:29N 51°17' E 004°15'0 0.0
2018-Feb-19 08:59N 51°17' E 004°15'0 0.0
2018-Feb-19 08:23N 51°17' E 004°15'0 0.0
2018-Feb-19 07:59N 51°17' E 004°15'0 0.0
2018-Feb-19 07:26N 51°17' E 004°15'0 0.0
2018-Feb-19 06:59N 51°17' E 004°15'0 0.0
2018-Feb-19 06:29N 51°17' E 004°15'0 0.0
2018-Feb-19 05:59N 51°17' E 004°15'0 0.0
2018-Feb-19 05:29N 51°17' E 004°15'0 0.1
2018-Feb-19 04:59N 51°17' E 004°15'0 0.5
2018-Feb-19 04:29N 51°17' E 004°15'0 0.0
2018-Feb-19 03:59N 51°17' E 004°15'0 0.0
2018-Feb-19 03:29N 51°17' E 004°15'0 0.0
2018-Feb-19 02:59N 51°17' E 004°15'0 0.0
2018-Feb-19 02:26N 51°17' E 004°15'0 0.0
2018-Feb-19 01:59N 51°17' E 004°15'0 0.0
2018-Feb-19 01:29N 51°17' E 004°15'0 0.0
2018-Feb-19 00:59N 51°17' E 004°15'0 0.0
2018-Feb-19 00:29N 51°17' E 004°15'0 0.0
2018-Feb-18 23:59N 51°17' E 004°15'0 0.0
2018-Feb-18 23:29N 51°17' E 004°15'0 0.0
2018-Feb-18 22:59N 51°17' E 004°15'0 0.0
2018-Feb-18 22:26N 51°17' E 004°15'0 0.0
2018-Feb-18 21:59N 51°17' E 004°15'0 0.0
2018-Feb-18 21:29N 51°17' E 004°15'0 0.0
2018-Feb-18 20:59N 51°17' E 004°15'0 0.0
2018-Feb-18 20:29N 51°17' E 004°15'0 0.0
2018-Feb-18 19:59N 51°17' E 004°15'0 0.0
2018-Feb-18 19:29N 51°17' E 004°15'0 0.0
2018-Feb-18 18:59N 51°17' E 004°15'0 0.0
2018-Feb-18 18:29N 51°17' E 004°15'0 0.0
2018-Feb-18 17:59N 51°17' E 004°15'0 0.0
2018-Feb-18 17:29N 51°17' E 004°15'0 0.0
2018-Feb-18 16:56N 51°17' E 004°15'0 0.0
2018-Feb-18 16:29N 51°17' E 004°15'0 0.0
2018-Feb-18 15:59N 51°17' E 004°15'0 0.0
2018-Feb-18 15:29N 51°17' E 004°15'0 0.0
2018-Feb-18 14:56N 51°17' E 004°15'0 0.0
2018-Feb-18 14:29N 51°17' E 004°15'0 0.0
2018-Feb-18 13:59N 51°17' E 004°15'0 0.0
2018-Feb-18 13:29N 51°17' E 004°15'0 0.0
2018-Feb-18 12:56N 51°17' E 004°15'0 0.0
2018-Feb-18 12:29N 51°17' E 004°15'0 0.0
2018-Feb-18 11:59N 51°17' E 004°15'0 0.0
2018-Feb-18 11:29N 51°17' E 004°15'0 0.0
2018-Feb-18 10:59N 51°17' E 004°15'0 0.0
2018-Feb-18 10:29N 51°17' E 004°15'0 0.0
2018-Feb-18 09:59N 51°17' E 004°15'0 0.0
2018-Feb-18 09:29N 51°17' E 004°15'0 0.0
2018-Feb-18 08:59N 51°17' E 004°15'0 0.0
2018-Feb-18 08:29N 51°17' E 004°15'0 0.0
2018-Feb-18 07:59N 51°17' E 004°15'0 0.0
2018-Feb-18 07:29N 51°17' E 004°15'0 0.0
2018-Feb-18 06:59N 51°17' E 004°15'0 0.0
2018-Feb-18 06:29N 51°17' E 004°15'0 0.0
2018-Feb-18 05:59N 51°17' E 004°15'0 0.0
2018-Feb-18 05:29N 51°17' E 004°15'0 0.0
2018-Feb-18 04:59N 51°17' E 004°15'0 0.0
2018-Feb-18 04:29N 51°17' E 004°15'0 0.0
2018-Feb-18 03:59N 51°17' E 004°15'0 0.0
2018-Feb-18 03:29N 51°17' E 004°15'0 0.0
2018-Feb-18 02:59N 51°17' E 004°15'0 0.0
2018-Feb-18 02:29N 51°17' E 004°15'0 0.0
2018-Feb-18 01:59N 51°17' E 004°15'0 0.0
2018-Feb-18 01:29N 51°17' E 004°15'0 0.0
2018-Feb-18 00:59N 51°17' E 004°15'0 0.8
2018-Feb-18 00:30N 51°17' E 004°16'2 3.5
2018-Feb-18 00:00N 51°19' E 004°16'510.2
2018-Feb-17 23:31N 51°24' E 004°12'612.9
2018-Feb-17 23:01N 51°23' E 004°02'3 6.8
2018-Feb-17 22:30N 51°23' E 003°57'713.1
2018-Feb-17 22:00N 51°22' E 003°46'612.4
2018-Feb-17 21:30N 51°26' E 003°40'5 9.2
2018-Feb-17 21:00N 51°25' E 003°33'713.3
2018-Feb-17 20:30N 51°24' E 003°22'713.9
2018-Feb-17 20:00N 51°24' E 003°11'714.1
2018-Feb-17 19:30N 51°25' E 002°60'714.3
2018-Feb-17 19:00N 51°31' E 003°05'815.9
2018-Feb-17 18:30N 51°38' E 003°11'612.0
2018-Feb-17 18:00N 51°44' E 003°14'613.1
2018-Feb-17 17:30N 51°50' E 003°17'2 3.2
2018-Feb-17 16:55N 51°52' E 003°16'0 0.4
2018-Feb-17 16:29N 51°52' E 003°16'1 1.6
2018-Feb-17 16:00N 51°51' E 003°16'0 0.2
2018-Feb-17 15:29N 51°51' E 003°15'2 4.8
2018-Feb-17 15:00N 51°52' E 003°19'711.2
2018-Feb-17 14:20N 51°60' E 003°21'1712.3
2018-Feb-17 13:00N 52°16' E 003°25'713.3
2018-Feb-17 12:30N 52°22' E 003°27'713.7
2018-Feb-17 12:01N 52°29' E 003°29'612.5
2018-Feb-17 11:30N 52°35' E 003°30'1411.1
2018-Feb-17 10:15N 52°46' E 003°43'414.3
2018-Feb-17 09:58N 52°50' E 003°48'2013.6
2018-Feb-17 08:30N 53°03' E 004°12'612.8
2018-Feb-17 08:00N 53°08' E 004°20'815.8
2018-Feb-17 07:29N 53°15' E 004°27'918.7
2018-Feb-17 06:59N 53°23' E 004°33'1018.8
2018-Feb-17 06:26N 53°33' E 004°38'918.8
2018-Feb-17 05:59N 53°41' E 004°43'919.4
2018-Feb-17 05:30N 53°50' E 004°49'1119.8
2018-Feb-17 04:57N 53°60' E 004°55'10619.9
2018-Feb-16 23:36N 55°31' E 006°30'17318.6
2018-Feb-16 14:18N 57°47' E 009°46'619.4
2018-Feb-16 14:00N 57°47' E 009°57'918.9
2018-Feb-16 13:30N 57°48' E 010°14'1019.2
2018-Feb-16 13:00N 57°49' E 010°32'816.6
2018-Feb-16 12:30N 57°48' E 010°47'713.1
2018-Feb-16 12:00N 57°41' E 010°51'816.7
2018-Feb-16 11:30N 57°37' E 011°04'1019.5
2018-Feb-16 11:00N 57°31' E 011°19'1019.5
2018-Feb-16 10:30N 57°23' E 011°29'1019.0
2018-Feb-16 10:00N 57°14' E 011°35'1019.2
2018-Feb-16 09:30N 57°05' E 011°41'10616.4
2018-Feb-16 03:04N 55°22' E 011°02'219.5
2018-Feb-16 02:59N 55°20' E 011°02'816.4
2018-Feb-16 02:30N 55°12' E 011°06'510.5
2018-Feb-16 02:00N 55°08' E 010°60'714.6
2018-Feb-16 01:30N 55°01' E 010°59'917.3
2018-Feb-16 01:00N 54°54' E 010°51'1020.6
2018-Feb-16 00:30N 54°44' E 010°48'918.0
2018-Feb-16 00:00N 54°37' E 010°58'918.9
2018-Feb-15 23:30N 54°35' E 011°14'1019.1
2018-Feb-15 23:00N 54°31' E 011°29'918.5
2018-Feb-15 22:30N 54°28' E 011°44'918.5
2018-Feb-15 22:00N 54°26' E 011°60'816.4
2018-Feb-15 21:30N 54°29' E 012°13'5815.6
2018-Feb-15 17:47N 54°60' E 013°39'919.7
2018-Feb-15 17:21N 55°02' E 013°53'1618.6
2018-Feb-15 16:28N 55°12' E 014°16'918.9
2018-Feb-15 16:00N 55°19' E 014°25'1019.0
2018-Feb-15 15:30N 55°26' E 014°36'1019.8
2018-Feb-15 15:00N 55°27' E 014°53'1020.0
2018-Feb-15 14:30N 55°28' E 015°11'1019.9
2018-Feb-15 14:00N 55°28' E 015°28'1019.9
2018-Feb-15 13:30N 55°28' E 015°46'1020.1
2018-Feb-15 13:00N 55°29' E 016°03'1019.8
2018-Feb-15 12:30N 55°29' E 016°21'1019.9
2018-Feb-15 12:00N 55°29' E 016°38'81 2.2
2018-Feb-13 23:18N 55°13' E 018°58'1120.4
2018-Feb-13 22:45N 55°02' E 018°58'520.5
2018-Feb-13 22:30N 54°57' E 018°58'1020.7
2018-Feb-13 22:00N 54°47' E 018°58'1019.9
2018-Feb-13 21:29N 54°37' E 018°55'917.7
2018-Feb-13 20:59N 54°32' E 018°42'5 9.7
2018-Feb-13 20:28N 54°32' E 018°34'2 3.6
2018-Feb-13 19:58N 54°33' E 018°31'0 0.0
2018-Feb-13 19:28N 54°33' E 018°31'0 0.0
2018-Feb-13 18:58N 54°33' E 018°31'0 0.0
2018-Feb-13 18:28N 54°33' E 018°31'0 0.0
2018-Feb-13 17:58N 54°33' E 018°31'0 0.0
2018-Feb-13 17:28N 54°33' E 018°31'0 0.0
2018-Feb-13 16:58N 54°33' E 018°31'0 0.0
2018-Feb-13 16:28N 54°33' E 018°31'0 0.0
2018-Feb-13 15:58N 54°33' E 018°31'0 0.0
2018-Feb-13 15:28N 54°33' E 018°31'0 0.0
2018-Feb-13 14:55N 54°33' E 018°31'0 0.0
2018-Feb-13 14:28N 54°33' E 018°31'0 0.0
2018-Feb-13 13:58N 54°33' E 018°31'0 0.0
2018-Feb-13 13:25N 54°33' E 018°31'0 0.0
2018-Feb-13 12:58N 54°33' E 018°31'0 0.0
2018-Feb-13 12:28N 54°33' E 018°31'0 0.0
2018-Feb-13 11:58N 54°33' E 018°31'0 0.0
2018-Feb-13 11:28N 54°33' E 018°31'0 0.0
2018-Feb-13 10:58N 54°33' E 018°31'0 0.0
2018-Feb-13 10:28N 54°33' E 018°31'0 0.0
2018-Feb-13 09:55N 54°33' E 018°31'0 0.0
2018-Feb-13 09:28N 54°33' E 018°31'0 0.0
2018-Feb-13 08:52N 54°33' E 018°31'0 0.0
2018-Feb-13 08:28N 54°33' E 018°31'0 0.0
2018-Feb-13 07:58N 54°33' E 018°31'0 0.0
2018-Feb-13 07:28N 54°33' E 018°31'0 0.0
2018-Feb-13 06:58N 54°33' E 018°31'0 0.0
2018-Feb-13 06:28N 54°33' E 018°31'0 0.0
2018-Feb-13 05:58N 54°33' E 018°31'0 0.0
2018-Feb-13 05:28N 54°33' E 018°31'0 0.0
2018-Feb-13 04:58N 54°33' E 018°31'0 0.0
2018-Feb-13 04:28N 54°33' E 018°31'0 0.0
2018-Feb-13 03:58N 54°33' E 018°31'0 0.0
2018-Feb-13 03:28N 54°33' E 018°31'0 0.0
2018-Feb-13 02:58N 54°33' E 018°31'0 0.0
2018-Feb-13 02:28N 54°33' E 018°31'0 0.0
2018-Feb-13 01:58N 54°33' E 018°31'0 0.0
2018-Feb-13 01:28N 54°33' E 018°31'0 0.0
2018-Feb-13 00:58N 54°33' E 018°31'0 0.0
2018-Feb-13 00:28N 54°33' E 018°31'0 0.0
2018-Feb-12 23:58N 54°33' E 018°31'0 0.0
2018-Feb-12 23:28N 54°33' E 018°31'0 0.0
2018-Feb-12 22:58N 54°33' E 018°31'0 0.0
2018-Feb-12 22:28N 54°33' E 018°31'0 0.0
2018-Feb-12 21:58N 54°33' E 018°31'0 0.0
2018-Feb-12 21:28N 54°33' E 018°31'0 0.0
2018-Feb-12 20:58N 54°33' E 018°31'0 0.0
2018-Feb-12 20:28N 54°33' E 018°31'0 0.0
2018-Feb-12 19:58N 54°33' E 018°31'0 0.0
2018-Feb-12 19:28N 54°33' E 018°31'0 0.0
2018-Feb-12 18:58N 54°33' E 018°31'0 0.0
2018-Feb-12 18:28N 54°33' E 018°31'0 0.0
2018-Feb-12 17:58N 54°33' E 018°31'0 0.0
2018-Feb-12 17:25N 54°33' E 018°31'0 0.0
2018-Feb-12 16:58N 54°33' E 018°31'0 0.0
2018-Feb-12 16:28N 54°33' E 018°31'0 0.0
2018-Feb-12 15:58N 54°33' E 018°31'0 0.0
2018-Feb-12 15:28N 54°33' E 018°31'0 0.0
2018-Feb-12 14:58N 54°33' E 018°31'0 0.0
2018-Feb-12 14:28N 54°33' E 018°31'0 0.0
2018-Feb-12 13:58N 54°33' E 018°31'0 0.0
2018-Feb-12 13:28N 54°33' E 018°31'0 0.0
2018-Feb-12 12:58N 54°33' E 018°31'0 0.0
2018-Feb-12 12:28N 54°33' E 018°31'0 0.0
2018-Feb-12 11:55N 54°33' E 018°31'0 0.0
2018-Feb-12 11:28N 54°33' E 018°31'0 0.0
2018-Feb-12 10:58N 54°33' E 018°31'0 0.0
2018-Feb-12 10:28N 54°33' E 018°31'0 0.0
2018-Feb-12 09:58N 54°33' E 018°31'0 0.0
2018-Feb-12 09:28N 54°33' E 018°31'0 0.8
2018-Feb-12 09:00N 54°32' E 018°31'2 3.0
2018-Feb-12 08:31N 54°32' E 018°34'4 7.7
2018-Feb-12 08:01N 54°32' E 018°40'3 5.3
2018-Feb-12 07:31N 54°32' E 018°45'5 9.4
2018-Feb-12 07:00N 54°35' E 018°52'815.4
2018-Feb-12 06:30N 54°42' E 018°57'713.4
2018-Feb-12 06:00N 54°48' E 018°53'918.1
2018-Feb-12 05:30N 54°54' E 018°41'918.1
2018-Feb-12 05:00N 54°58' E 018°27'918.3
2018-Feb-12 04:30N 55°01' E 018°12'1018.4
2018-Feb-12 03:58N 55°03' E 017°55'7118.5
2018-Feb-12 00:08N 55°25' E 015°56'218.7
2018-Feb-12 00:00N 55°25' E 015°52'918.8
2018-Feb-11 23:31N 55°25' E 015°36'918.8
2018-Feb-11 23:01N 55°25' E 015°19'918.8
2018-Feb-11 22:30N 55°25' E 015°03'1019.4
2018-Feb-11 22:00N 55°25' E 014°45'918.4
2018-Feb-11 21:30N 55°19' E 014°33'1019.8
2018-Feb-11 21:01N 55°11' E 014°23'1019.8
2018-Feb-11 20:31N 55°04' E 014°12'2319.5
2018-Feb-11 19:21N 54°55' E 013°35'3119.4
2018-Feb-11 17:46N 54°46' E 012°44'518.0
2018-Feb-11 17:30N 54°44' E 012°37'917.2
2018-Feb-11 17:01N 54°39' E 012°25'816.7
2018-Feb-11 16:30N 54°33' E 012°15'917.5
2018-Feb-11 16:00N 54°25' E 012°09'1418.1
2018-Feb-11 15:15N 54°25' E 011°46'417.9
2018-Feb-11 15:01N 54°27' E 011°39'917.9
2018-Feb-11 14:30N 54°31' E 011°25'817.1
2018-Feb-11 14:01N 54°35' E 011°12'816.9
2018-Feb-11 13:31N 54°37' E 010°57'816.4
2018-Feb-11 13:01N 54°41' E 010°46'815.2
2018-Feb-11 12:30N 54°49' E 010°50'612.9
2018-Feb-11 12:00N 54°55' E 010°52'612.8
2018-Feb-11 11:30N 55°00' E 010°59'714.0
2018-Feb-11 11:01N 55°07' E 010°59'612.6
2018-Feb-11 10:30N 55°12' E 011°06'713.7
2018-Feb-11 10:01N 55°19' E 011°02'8413.4
2018-Feb-11 03:45N 56°39' E 011°46'1915.1
2018-Feb-11 02:30N 56°58' E 011°44'816.3
2018-Feb-11 02:00N 57°06' E 011°39'816.2
2018-Feb-11 01:30N 57°13' E 011°34'816.0
2018-Feb-11 01:00N 57°21' E 011°29'815.9
2018-Feb-11 00:31N 57°28' E 011°23'815.6
2018-Feb-11 00:01N 57°33' E 011°12'816.1
2018-Feb-10 23:31N 57°39' E 011°01'816.9
2018-Feb-10 23:01N 57°45' E 010°50'918.4
2018-Feb-10 22:30N 57°48' E 010°34'16219.4
2018-Feb-10 14:10N 55°52' E 007°08'420.6
2018-Feb-10 14:00N 55°49' E 007°06'1020.8
2018-Feb-10 13:31N 55°39' E 006°59'1020.7
2018-Feb-10 13:00N 55°30' E 006°52'1020.7
2018-Feb-10 12:30N 55°20' E 006°45'1020.7
2018-Feb-10 12:00N 55°10' E 006°42'  
Track history (hours):
 
Tides and Currents Weather Stations Pressure Air Temp Water Temp Dewpoint Dewpoint Depression Visibility Wind Speed Wind Dir Waves Ship Positions

MSC Vidhi

Last reported at 2018-Feb-20 11:59 UTC. Time now 2018-Feb-20 12:13 UTC.
Position N 51°58' E 004°04'.

Length 277 m; draft 8.9 m.

Type: Ship (hazmat cat A). MMSI: 636016433.

Date/timePositionNaut miles runAvg speedWind from/ knotsBaromVisibWave heightAir tempDewpointWater temp
2018-Feb-20 11:59N 51°58' E 004°04'0 0.0
2018-Feb-20 11:29N 51°58' E 004°04'0 0.0
2018-Feb-20 10:59N 51°58' E 004°04'0 0.0
2018-Feb-20 10:29N 51°58' E 004°04'0 0.0
2018-Feb-20 09:59N 51°58' E 004°04'0 0.0
2018-Feb-20 09:29N 51°58' E 004°04'0 0.0
2018-Feb-20 08:59N 51°58' E 004°04'0 0.0
2018-Feb-20 08:29N 51°58' E 004°04'0 0.0
2018-Feb-20 07:59N 51°58' E 004°04'0 0.0
2018-Feb-20 07:29N 51°58' E 004°04'0 0.0
2018-Feb-20 06:59N 51°58' E 004°04'0 0.0
2018-Feb-20 06:29N 51°58' E 004°04'0 0.0
2018-Feb-20 05:59N 51°58' E 004°04'0 0.0
2018-Feb-20 05:29N 51°58' E 004°04'0 0.0
2018-Feb-20 04:59N 51°58' E 004°04'0 0.0
2018-Feb-20 04:29N 51°58' E 004°04'0 0.0
2018-Feb-20 04:01N 51°58' E 004°04'0 0.3
2018-Feb-20 03:31N 51°58' E 004°04'2 3.8
2018-Feb-20 03:01N 51°59' E 004°03'611.6
2018-Feb-20 02:31N 52°01' E 003°54'3 5.1
2018-Feb-20 02:01N 52°01' E 003°49'3 6.4
2018-Feb-20 01:31N 51°59' E 003°45'3 6.9
2018-Feb-20 01:00N 51°58' E 003°40'2 4.1
2018-Feb-20 00:31N 51°57' E 003°37'3 6.3
2018-Feb-20 00:00N 51°56' E 003°32'3 6.7
2018-Feb-19 23:30N 51°55' E 003°26'4 8.3
2018-Feb-19 23:00N 51°53' E 003°21'814.5
2018-Feb-19 22:29N 51°46' E 003°16'613.7
2018-Feb-19 22:00N 51°40' E 003°12'816.6
2018-Feb-19 21:30N 51°32' E 003°07'816.7
2018-Feb-19 21:01N 51°25' E 002°59'1019.1
2018-Feb-19 20:30N 51°25' E 003°15'1020.2
2018-Feb-19 20:00N 51°25' E 003°31'713.0
2018-Feb-19 19:30N 51°26' E 003°41'816.8
2018-Feb-19 19:01N 51°21' E 003°51'815.2
2018-Feb-19 18:31N 51°26' E 003°60'613.0
2018-Feb-19 18:01N 51°22' E 004°08'611.0
2018-Feb-19 17:30N 51°20' E 004°16'4 7.1
2018-Feb-19 17:00N 51°17' E 004°15'0 0.0
2018-Feb-19 16:29N 51°17' E 004°15'0 0.0
2018-Feb-19 15:59N 51°17' E 004°15'0 0.0
2018-Feb-19 15:29N 51°17' E 004°15'0 0.0
2018-Feb-19 14:59N 51°17' E 004°15'0 0.0
2018-Feb-19 14:29N 51°17' E 004°15'0 0.0
2018-Feb-19 13:53N 51°17' E 004°15'0 0.0
2018-Feb-19 13:26N 51°17' E 004°15'0 0.0
2018-Feb-19 12:59N 51°17' E 004°15'0 0.0
2018-Feb-19 12:23N 51°17' E 004°15'0 0.0
2018-Feb-19 11:56N 51°17' E 004°15'0 0.0
2018-Feb-19 11:29N 51°17' E 004°15'0 0.0
2018-Feb-19 10:59N 51°17' E 004°15'0 0.0
2018-Feb-19 10:26N 51°17' E 004°15'0 0.0
2018-Feb-19 09:59N 51°17' E 004°15'0 0.0
2018-Feb-19 09:29N 51°17' E 004°15'0 0.0
2018-Feb-19 08:59N 51°17' E 004°15'0 0.0
2018-Feb-19 08:23N 51°17' E 004°15'0 0.0
2018-Feb-19 07:59N 51°17' E 004°15'0 0.0
2018-Feb-19 07:26N 51°17' E 004°15'0 0.0
2018-Feb-19 06:59N 51°17' E 004°15'0 0.0
2018-Feb-19 06:29N 51°17' E 004°15'0 0.0
2018-Feb-19 05:59N 51°17' E 004°15'0 0.0
2018-Feb-19 05:29N 51°17' E 004°15'0 0.1
2018-Feb-19 04:59N 51°17' E 004°15'0 0.5
2018-Feb-19 04:29N 51°17' E 004°15'0 0.0
2018-Feb-19 03:59N 51°17' E 004°15'0 0.0
2018-Feb-19 03:29N 51°17' E 004°15'0 0.0
2018-Feb-19 02:59N 51°17' E 004°15'0 0.0
2018-Feb-19 02:26N 51°17' E 004°15'0 0.0
2018-Feb-19 01:59N 51°17' E 004°15'0 0.0
2018-Feb-19 01:29N 51°17' E 004°15'0 0.0
2018-Feb-19 00:59N 51°17' E 004°15'0 0.0
2018-Feb-19 00:29N 51°17' E 004°15'0 0.0
2018-Feb-18 23:59N 51°17' E 004°15'0 0.0
2018-Feb-18 23:29N 51°17' E 004°15'0 0.0
2018-Feb-18 22:59N 51°17' E 004°15'0 0.0
2018-Feb-18 22:26N 51°17' E 004°15'0 0.0
2018-Feb-18 21:59N 51°17' E 004°15'0 0.0
2018-Feb-18 21:29N 51°17' E 004°15'0 0.0
2018-Feb-18 20:59N 51°17' E 004°15'0 0.0
2018-Feb-18 20:29N 51°17' E 004°15'0 0.0
2018-Feb-18 19:59N 51°17' E 004°15'0 0.0
2018-Feb-18 19:29N 51°17' E 004°15'0 0.0
2018-Feb-18 18:59N 51°17' E 004°15'0 0.0
2018-Feb-18 18:29N 51°17' E 004°15'0 0.0
2018-Feb-18 17:59N 51°17' E 004°15'0 0.0
2018-Feb-18 17:29N 51°17' E 004°15'0 0.0
2018-Feb-18 16:56N 51°17' E 004°15'0 0.0
2018-Feb-18 16:29N 51°17' E 004°15'0 0.0
2018-Feb-18 15:59N 51°17' E 004°15'0 0.0
2018-Feb-18 15:29N 51°17' E 004°15'0 0.0
2018-Feb-18 14:56N 51°17' E 004°15'0 0.0
2018-Feb-18 14:29N 51°17' E 004°15'0 0.0
2018-Feb-18 13:59N 51°17' E 004°15'0 0.0
2018-Feb-18 13:29N 51°17' E 004°15'0 0.0
2018-Feb-18 12:56N 51°17' E 004°15'0 0.0
2018-Feb-18 12:29N 51°17' E 004°15'0 0.0
2018-Feb-18 11:59N 51°17' E 004°15'0 0.0
2018-Feb-18 11:29N 51°17' E 004°15'0 0.0
2018-Feb-18 10:59N 51°17' E 004°15'0 0.0
2018-Feb-18 10:29N 51°17' E 004°15'0 0.0
2018-Feb-18 09:59N 51°17' E 004°15'0 0.0
2018-Feb-18 09:29N 51°17' E 004°15'0 0.0
2018-Feb-18 08:59N 51°17' E 004°15'0 0.0
2018-Feb-18 08:29N 51°17' E 004°15'0 0.0
2018-Feb-18 07:59N 51°17' E 004°15'0 0.0
2018-Feb-18 07:29N 51°17' E 004°15'0 0.0
2018-Feb-18 06:59N 51°17' E 004°15'0 0.0
2018-Feb-18 06:29N 51°17' E 004°15'0 0.0
2018-Feb-18 05:59N 51°17' E 004°15'0 0.0
2018-Feb-18 05:29N 51°17' E 004°15'0 0.0
2018-Feb-18 04:59N 51°17' E 004°15'0 0.0
2018-Feb-18 04:29N 51°17' E 004°15'0 0.0
2018-Feb-18 03:59N 51°17' E 004°15'0 0.0
2018-Feb-18 03:29N 51°17' E 004°15'0 0.0
2018-Feb-18 02:59N 51°17' E 004°15'0 0.0
2018-Feb-18 02:29N 51°17' E 004°15'0 0.0
2018-Feb-18 01:59N 51°17' E 004°15'0 0.0
2018-Feb-18 01:29N 51°17' E 004°15'0 0.0
2018-Feb-18 00:59N 51°17' E 004°15'0 0.8
2018-Feb-18 00:30N 51°17' E 004°16'2 3.5
2018-Feb-18 00:00N 51°19' E 004°16'510.2
2018-Feb-17 23:31N 51°24' E 004°12'612.9
2018-Feb-17 23:01N 51°23' E 004°02'3 6.8
2018-Feb-17 22:30N 51°23' E 003°57'713.1
2018-Feb-17 22:00N 51°22' E 003°46'612.4
2018-Feb-17 21:30N 51°26' E 003°40'5 9.2
2018-Feb-17 21:00N 51°25' E 003°33'713.3
2018-Feb-17 20:30N 51°24' E 003°22'713.9
2018-Feb-17 20:00N 51°24' E 003°11'714.1
2018-Feb-17 19:30N 51°25' E 002°60'714.3
2018-Feb-17 19:00N 51°31' E 003°05'815.9
2018-Feb-17 18:30N 51°38' E 003°11'612.0
2018-Feb-17 18:00N 51°44' E 003°14'613.1
2018-Feb-17 17:30N 51°50' E 003°17'2 3.2
2018-Feb-17 16:55N 51°52' E 003°16'0 0.4
2018-Feb-17 16:29N 51°52' E 003°16'1 1.6
2018-Feb-17 16:00N 51°51' E 003°16'0 0.2
2018-Feb-17 15:29N 51°51' E 003°15'2 4.8
2018-Feb-17 15:00N 51°52' E 003°19'711.2
2018-Feb-17 14:20N 51°60' E 003°21'1712.3
2018-Feb-17 13:00N 52°16' E 003°25'713.3
2018-Feb-17 12:30N 52°22' E 003°27'713.7
2018-Feb-17 12:01N 52°29' E 003°29'612.5
2018-Feb-17 11:30N 52°35' E 003°30'1411.1
2018-Feb-17 10:15N 52°46' E 003°43'414.3
2018-Feb-17 09:58N 52°50' E 003°48'2013.6
2018-Feb-17 08:30N 53°03' E 004°12'612.8
2018-Feb-17 08:00N 53°08' E 004°20'815.8
2018-Feb-17 07:29N 53°15' E 004°27'918.7
2018-Feb-17 06:59N 53°23' E 004°33'1018.8
2018-Feb-17 06:26N 53°33' E 004°38'918.8
2018-Feb-17 05:59N 53°41' E 004°43'919.4
2018-Feb-17 05:30N 53°50' E 004°49'1119.8
2018-Feb-17 04:57N 53°60' E 004°55'10619.9
2018-Feb-16 23:36N 55°31' E 006°30'17318.6
2018-Feb-16 14:18N 57°47' E 009°46'619.4
2018-Feb-16 14:00N 57°47' E 009°57'918.9
2018-Feb-16 13:30N 57°48' E 010°14'1019.2
2018-Feb-16 13:00N 57°49' E 010°32'816.6
2018-Feb-16 12:30N 57°48' E 010°47'713.1
2018-Feb-16 12:00N 57°41' E 010°51'816.7
2018-Feb-16 11:30N 57°37' E 011°04'1019.5
2018-Feb-16 11:00N 57°31' E 011°19'1019.5
2018-Feb-16 10:30N 57°23' E 011°29'1019.0
2018-Feb-16 10:00N 57°14' E 011°35'1019.2
2018-Feb-16 09:30N 57°05' E 011°41'10616.4
2018-Feb-16 03:04N 55°22' E 011°02'219.5
2018-Feb-16 02:59N 55°20' E 011°02'816.4
2018-Feb-16 02:30N 55°12' E 011°06'510.5
2018-Feb-16 02:00N 55°08' E 010°60'714.6
2018-Feb-16 01:30N 55°01' E 010°59'917.3
2018-Feb-16 01:00N 54°54' E 010°51'1020.6
2018-Feb-16 00:30N 54°44' E 010°48'918.0
2018-Feb-16 00:00N 54°37' E 010°58'918.9
2018-Feb-15 23:30N 54°35' E 011°14'1019.1
2018-Feb-15 23:00N 54°31' E 011°29'918.5
2018-Feb-15 22:30N 54°28' E 011°44'918.5
2018-Feb-15 22:00N 54°26' E 011°60'816.4
2018-Feb-15 21:30N 54°29' E 012°13'5815.6
2018-Feb-15 17:47N 54°60' E 013°39'919.7
2018-Feb-15 17:21N 55°02' E 013°53'1618.6
2018-Feb-15 16:28N 55°12' E 014°16'918.9
2018-Feb-15 16:00N 55°19' E 014°25'1019.0
2018-Feb-15 15:30N 55°26' E 014°36'1019.8
2018-Feb-15 15:00N 55°27' E 014°53'1020.0
2018-Feb-15 14:30N 55°28' E 015°11'1019.9
2018-Feb-15 14:00N 55°28' E 015°28'1019.9
2018-Feb-15 13:30N 55°28' E 015°46'1020.1
2018-Feb-15 13:00N 55°29' E 016°03'1019.8
2018-Feb-15 12:30N 55°29' E 016°21'1019.9
2018-Feb-15 12:00N 55°29' E 016°38'81 2.2
2018-Feb-13 23:18N 55°13' E 018°58'1120.4
2018-Feb-13 22:45N 55°02' E 018°58'520.5
2018-Feb-13 22:30N 54°57' E 018°58'1020.7
2018-Feb-13 22:00N 54°47' E 018°58'1019.9
2018-Feb-13 21:29N 54°37' E 018°55'917.7
2018-Feb-13 20:59N 54°32' E 018°42'5 9.7
2018-Feb-13 20:28N 54°32' E 018°34'2 3.6
2018-Feb-13 19:58N 54°33' E 018°31'0 0.0
2018-Feb-13 19:28N 54°33' E 018°31'0 0.0
2018-Feb-13 18:58N 54°33' E 018°31'0 0.0
2018-Feb-13 18:28N 54°33' E 018°31'0 0.0
2018-Feb-13 17:58N 54°33' E 018°31'0 0.0
2018-Feb-13 17:28N 54°33' E 018°31'0 0.0
2018-Feb-13 16:58N 54°33' E 018°31'0 0.0
2018-Feb-13 16:28N 54°33' E 018°31'0 0.0
2018-Feb-13 15:58N 54°33' E 018°31'0 0.0
2018-Feb-13 15:28N 54°33' E 018°31'0 0.0
2018-Feb-13 14:55N 54°33' E 018°31'0 0.0
2018-Feb-13 14:28N 54°33' E 018°31'0 0.0
2018-Feb-13 13:58N 54°33' E 018°31'0 0.0
2018-Feb-13 13:25N 54°33' E 018°31'0 0.0
2018-Feb-13 12:58N 54°33' E 018°31'0 0.0
2018-Feb-13 12:28N 54°33' E 018°31'0 0.0
2018-Feb-13 11:58N 54°33' E 018°31'0 0.0
2018-Feb-13 11:28N 54°33' E 018°31'0 0.0
2018-Feb-13 10:58N 54°33' E 018°31'0 0.0
2018-Feb-13 10:28N 54°33' E 018°31'0 0.0
2018-Feb-13 09:55N 54°33' E 018°31'0 0.0
2018-Feb-13 09:28N 54°33' E 018°31'0 0.0
2018-Feb-13 08:52N 54°33' E 018°31'0 0.0
2018-Feb-13 08:28N 54°33' E 018°31'0 0.0
2018-Feb-13 07:58N 54°33' E 018°31'0 0.0
2018-Feb-13 07:28N 54°33' E 018°31'0 0.0
2018-Feb-13 06:58N 54°33' E 018°31'0 0.0
2018-Feb-13 06:28N 54°33' E 018°31'0 0.0
2018-Feb-13 05:58N 54°33' E 018°31'0 0.0
2018-Feb-13 05:28N 54°33' E 018°31'0 0.0
2018-Feb-13 04:58N 54°33' E 018°31'0 0.0
2018-Feb-13 04:28N 54°33' E 018°31'0 0.0
2018-Feb-13 03:58N 54°33' E 018°31'0 0.0
2018-Feb-13 03:28N 54°33' E 018°31'0 0.0
2018-Feb-13 02:58N 54°33' E 018°31'0 0.0
2018-Feb-13 02:28N 54°33' E 018°31'0 0.0
2018-Feb-13 01:58N 54°33' E 018°31'0 0.0
2018-Feb-13 01:28N 54°33' E 018°31'0 0.0
2018-Feb-13 00:58N 54°33' E 018°31'0 0.0
2018-Feb-13 00:28N 54°33' E 018°31'0 0.0
2018-Feb-12 23:58N 54°33' E 018°31'0 0.0
2018-Feb-12 23:28N 54°33' E 018°31'0 0.0
2018-Feb-12 22:58N 54°33' E 018°31'0 0.0
2018-Feb-12 22:28N 54°33' E 018°31'0 0.0
2018-Feb-12 21:58N 54°33' E 018°31'0 0.0
2018-Feb-12 21:28N 54°33' E 018°31'0 0.0
2018-Feb-12 20:58N 54°33' E 018°31'0 0.0
2018-Feb-12 20:28N 54°33' E 018°31'0 0.0
2018-Feb-12 19:58N 54°33' E 018°31'0 0.0
2018-Feb-12 19:28N 54°33' E 018°31'0 0.0
2018-Feb-12 18:58N 54°33' E 018°31'0 0.0
2018-Feb-12 18:28N 54°33' E 018°31'0 0.0
2018-Feb-12 17:58N 54°33' E 018°31'0 0.0
2018-Feb-12 17:25N 54°33' E 018°31'0 0.0
2018-Feb-12 16:58N 54°33' E 018°31'0 0.0
2018-Feb-12 16:28N 54°33' E 018°31'0 0.0
2018-Feb-12 15:58N 54°33' E 018°31'0 0.0
2018-Feb-12 15:28N 54°33' E 018°31'0 0.0
2018-Feb-12 14:58N 54°33' E 018°31'0 0.0
2018-Feb-12 14:28N 54°33' E 018°31'0 0.0
2018-Feb-12 13:58N 54°33' E 018°31'0 0.0
2018-Feb-12 13:28N 54°33' E 018°31'0 0.0
2018-Feb-12 12:58N 54°33' E 018°31'0 0.0
2018-Feb-12 12:28N 54°33' E 018°31'0 0.0
2018-Feb-12 11:55N 54°33' E 018°31'0 0.0
2018-Feb-12 11:28N 54°33' E 018°31'0 0.0
2018-Feb-12 10:58N 54°33' E 018°31'0 0.0
2018-Feb-12 10:28N 54°33' E 018°31'0 0.0
2018-Feb-12 09:58N 54°33' E 018°31'0 0.0
2018-Feb-12 09:28N 54°33' E 018°31'0 0.8
2018-Feb-12 09:00N 54°32' E 018°31'2 3.0
2018-Feb-12 08:31N 54°32' E 018°34'4 7.7
2018-Feb-12 08:01N 54°32' E 018°40'3 5.3
2018-Feb-12 07:31N 54°32' E 018°45'5 9.4
2018-Feb-12 07:00N 54°35' E 018°52'815.4
2018-Feb-12 06:30N 54°42' E 018°57'713.4
2018-Feb-12 06:00N 54°48' E 018°53'918.1
2018-Feb-12 05:30N 54°54' E 018°41'918.1
2018-Feb-12 05:00N 54°58' E 018°27'918.3
2018-Feb-12 04:30N 55°01' E 018°12'1018.4
2018-Feb-12 03:58N 55°03' E 017°55'7118.5
2018-Feb-12 00:08N 55°25' E 015°56'218.7
2018-Feb-12 00:00N 55°25' E 015°52'918.8
2018-Feb-11 23:31N 55°25' E 015°36'918.8
2018-Feb-11 23:01N 55°25' E 015°19'918.8
2018-Feb-11 22:30N 55°25' E 015°03'1019.4
2018-Feb-11 22:00N 55°25' E 014°45'918.4
2018-Feb-11 21:30N 55°19' E 014°33'1019.8
2018-Feb-11 21:01N 55°11' E 014°23'1019.8
2018-Feb-11 20:31N 55°04' E 014°12'2319.5
2018-Feb-11 19:21N 54°55' E 013°35'3119.4
2018-Feb-11 17:46N 54°46' E 012°44'518.0
2018-Feb-11 17:30N 54°44' E 012°37'917.2
2018-Feb-11 17:01N 54°39' E 012°25'816.7
2018-Feb-11 16:30N 54°33' E 012°15'917.5
2018-Feb-11 16:00N 54°25' E 012°09'1418.1
2018-Feb-11 15:15N 54°25' E 011°46'417.9
2018-Feb-11 15:01N 54°27' E 011°39'917.9
2018-Feb-11 14:30N 54°31' E 011°25'817.1
2018-Feb-11 14:01N 54°35' E 011°12'816.9
2018-Feb-11 13:31N 54°37' E 010°57'816.4
2018-Feb-11 13:01N 54°41' E 010°46'815.2
2018-Feb-11 12:30N 54°49' E 010°50'612.9
2018-Feb-11 12:00N 54°55' E 010°52'612.8
2018-Feb-11 11:30N 55°00' E 010°59'714.0
2018-Feb-11 11:01N 55°07' E 010°59'612.6
2018-Feb-11 10:30N 55°12' E 011°06'713.7
2018-Feb-11 10:01N 55°19' E 011°02'8413.4
2018-Feb-11 03:45N 56°39' E 011°46'1915.1
2018-Feb-11 02:30N 56°58' E 011°44'816.3
2018-Feb-11 02:00N 57°06' E 011°39'816.2
2018-Feb-11 01:30N 57°13' E 011°34'816.0
2018-Feb-11 01:00N 57°21' E 011°29'815.9
2018-Feb-11 00:31N 57°28' E 011°23'815.6
2018-Feb-11 00:01N 57°33' E 011°12'816.1
2018-Feb-10 23:31N 57°39' E 011°01'816.9
2018-Feb-10 23:01N 57°45' E 010°50'918.4
2018-Feb-10 22:30N 57°48' E 010°34'16219.4
2018-Feb-10 14:10N 55°52' E 007°08'420.6
2018-Feb-10 14:00N 55°49' E 007°06'1020.8
2018-Feb-10 13:31N 55°39' E 006°59'1020.7
2018-Feb-10 13:00N 55°30' E 006°52'1020.7
2018-Feb-10 12:30N 55°20' E 006°45'1020.7
2018-Feb-10 12:00N 55°10' E 006°42'  

Dump ship's entire track history